Detall de PIREP

Printer-friendly versionPDF version

[2013/06/21 09:06:00]
Flight IATA:CT1004
Pilot Number:042
Company ICAO:CAT
Aircraft Type:DC3/A
PAX:6
Aircraft Registration:PAX
Departing Airport: LESU
Destination Airport: LFMP
Alternate Airport:LFBO
Online: VATSIM
Route:DCT
Flight Level:F080
No Slew and time accel
No pause
Crash detect
Detect pilot in Cockpit between each 30 and 45 minutes
09:06 Zero fuel Weight: 20810 Lbs, Fuel Weight: 06 Lbs
09:06 VATSIM:No METAR available for LESU.
09:06 VATSIM:LFMP 210830Z VRB02KT 9999 FEW033 22/12 Q1018 NOSIG
09:06 VOICE CATALONIAN/FLAMA DEL CANIGO
09:11 Parking Brakes off
09:13 Take-off
09:13 Take off Weight: 20810 Lbs
09:13 Wind: 150º @ 002 Knots Heading: 033º
09:13 POS N42º 20´ 24´´ E001º 24´ 34´´
09:13 Gear Up: 077 Knots
09:13 Flaps:2 at 77 Knots
09:13 Flaps:1 at 77 Knots
09:14 Flaps:0 at 90 Knots
09:16 TOC
09:16 Fuel Weight: 00 Lb
09:16 TOD
09:16 Fuel Weight: 00 Lb
09:16 TOC
09:16 Fuel Weight: 00 Lb
09:28 Wind:283º@014 Knots Heading: 070º Ground Speed: 181 Knots Altitude 9786 ft
09:33 TOD
09:33 Fuel Weight: 00 Lb
09:33 TOC
09:33 Fuel Weight: 00 Lb
09:33 TOD
09:33 Fuel Weight: 00 Lb
09:39 Flaps:1 at 137 Knots
09:43 Wind:359º@002 Knots Heading: 330º Ground Speed: 119 Knots Altitude 2526 ft
09:43 Gear Down: 115 Knots
09:43 Flaps:2 at 109 Knots
09:47 Flaps:3 at 101 Knots
09:47 Flaps:4 at 97 Knots
09:48 TouchDown:Rate -121 ft/min Speed: 67 Knots
09:49 Flaps:0 at 53 Knots
09:49 VATSIM:LFMP 210930Z 13003KT 060V190 9999 FEW040 23/13 Q1018 NOSIG
09:49 Land
09:49 Wind:000º@002 Knots
09:49 Heading: 330º
09:49 Flight Duration: 00:36
09:49 Landing Weight: 20810 Lbs
09:49 POS N42º 44´ 47´´ E002º 52´ 05´´
09:51 Parking brakes on
09:51 Block to Block Duration: 00:40
09:51 Final Fuel: 00 Lbls
09:51 Spent Fuel: 06 Lbls
09:51 Flight Length: 89 NM
09:51 TOD Land Length: 34 NM

Exportar CSV

Powered by Drupal - Modified by Danger4k